sensor_id;sensor_type;location;lat;lon;timestamp;P1;durP1;ratioP1;P2;durP2;ratioP2
57826;SDS011;43656;57.746;11.780;2022-11-25T00:00:11;33.92;;;19.95;;
57826;SDS011;43656;57.746;11.780;2022-11-25T00:02:43;32.45;;;19.90;;
57826;SDS011;43656;57.746;11.780;2022-11-25T00:05:09;32.22;;;19.30;;
57826;SDS011;43656;57.746;11.780;2022-11-25T00:07:35;30.67;;;18.58;;
57826;SDS011;43656;57.746;11.780;2022-11-25T00:10:01;32.83;;;18.85;;
57826;SDS011;43656;57.746;11.780;2022-11-25T00:12:28;31.33;;;18.40;;
57826;SDS011;43656;57.746;11.780;2022-11-25T00:14:56;30.75;;;18.60;;
57826;SDS011;43656;57.746;11.780;2022-11-25T00:17:21;34.50;;;18.45;;
57826;SDS011;43656;57.746;11.780;2022-11-25T00:19:47;28.35;;;17.50;;
57826;SDS011;43656;57.746;11.780;2022-11-25T00:22:13;29.88;;;16.30;;
57826;SDS011;43656;57.746;11.780;2022-11-25T00:24:39;28.10;;;16.52;;
57826;SDS011;43656;57.746;11.780;2022-11-25T00:27:04;27.17;;;16.67;;
57826;SDS011;43656;57.746;11.780;2022-11-25T00:29:30;26.13;;;16.13;;
57826;SDS011;43656;57.746;11.780;2022-11-25T00:31:55;27.58;;;16.73;;
57826;SDS011;43656;57.746;11.780;2022-11-25T00:34:21;29.70;;;16.88;;
57826;SDS011;43656;57.746;11.780;2022-11-25T00:36:46;26.13;;;16.75;;
57826;SDS011;43656;57.746;11.780;2022-11-25T00:39:15;29.20;;;16.25;;
57826;SDS011;43656;57.746;11.780;2022-11-25T00:41:42;29.35;;;16.75;;
57826;SDS011;43656;57.746;11.780;2022-11-25T00:44:27;29.52;;;16.70;;
57826;SDS011;43656;57.746;11.780;2022-11-25T00:47:12;27.65;;;16.77;;
57826;SDS011;43656;57.746;11.780;2022-11-25T00:49:46;27.02;;;16.95;;
57826;SDS011;43656;57.746;11.780;2022-11-25T00:52:14;27.35;;;16.27;;
57826;SDS011;43656;57.746;11.780;2022-11-25T00:54:41;26.75;;;16.55;;
57826;SDS011;43656;57.746;11.780;2022-11-25T00:57:08;27.63;;;17.08;;
57826;SDS011;43656;57.746;11.780;2022-11-25T00:59:34;26.35;;;16.23;;
57826;SDS011;43656;57.746;11.780;2022-11-25T01:02:00;30.48;;;17.13;;
57826;SDS011;43656;57.746;11.780;2022-11-25T01:04:25;28.02;;;16.75;;
57826;SDS011;43656;57.746;11.780;2022-11-25T01:06:51;30.35;;;17.55;;
57826;SDS011;43656;57.746;11.780;2022-11-25T01:09:18;28.63;;;16.85;;
57826;SDS011;43656;57.746;11.780;2022-11-25T01:11:43;27.95;;;16.50;;
57826;SDS011;43656;57.746;11.780;2022-11-25T01:14:08;30.85;;;17.08;;
57826;SDS011;43656;57.746;11.780;2022-11-25T01:16:37;30.17;;;17.13;;
57826;SDS011;43656;57.746;11.780;2022-11-25T01:19:02;30.27;;;16.75;;
57826;SDS011;43656;57.746;11.780;2022-11-25T01:21:29;29.55;;;16.65;;
57826;SDS011;43656;57.746;11.780;2022-11-25T01:23:57;27.88;;;16.45;;
57826;SDS011;43656;57.746;11.780;2022-11-25T01:26:24;27.60;;;16.25;;
57826;SDS011;43656;57.746;11.780;2022-11-25T01:28:54;27.80;;;16.08;;
57826;SDS011;43656;57.746;11.780;2022-11-25T01:31:22;27.88;;;17.40;;
57826;SDS011;43656;57.746;11.780;2022-11-25T01:33:56;31.05;;;17.15;;
57826;SDS011;43656;57.746;11.780;2022-11-25T01:36:23;28.10;;;17.20;;
57826;SDS011;43656;57.746;11.780;2022-11-25T01:38:50;29.05;;;16.90;;
57826;SDS011;43656;57.746;11.780;2022-11-25T01:41:17;28.30;;;17.42;;
57826;SDS011;43656;57.746;11.780;2022-11-25T01:44:00;30.05;;;17.15;;
57826;SDS011;43656;57.746;11.780;2022-11-25T01:57:47;31.20;;;17.00;;
57826;SDS011;43656;57.746;11.780;2022-11-25T02:00:23;29.02;;;17.15;;
57826;SDS011;43656;57.746;11.780;2022-11-25T02:02:51;26.95;;;16.67;;
57826;SDS011;43656;57.746;11.780;2022-11-25T02:08:20;26.85;;;16.75;;
57826;SDS011;43656;57.746;11.780;2022-11-25T02:10:49;28.73;;;17.17;;
57826;SDS011;43656;57.746;11.780;2022-11-25T02:13:18;29.13;;;17.33;;
57826;SDS011;43656;57.746;11.780;2022-11-25T02:15:46;28.67;;;16.48;;
57826;SDS011;43656;57.746;11.780;2022-11-25T02:18:15;24.83;;;16.25;;
57826;SDS011;43656;57.746;11.780;2022-11-25T02:20:41;29.67;;;16.55;;
57826;SDS011;43656;57.746;11.780;2022-11-25T02:25:42;27.40;;;16.25;;
57826;SDS011;43656;57.746;11.780;2022-11-25T02:28:11;27.00;;;16.50;;
57826;SDS011;43656;57.746;11.780;2022-11-25T02:30:40;28.92;;;16.23;;
57826;SDS011;43656;57.746;11.780;2022-11-25T02:33:10;26.25;;;16.38;;
57826;SDS011;43656;57.746;11.780;2022-11-25T02:35:37;26.55;;;16.17;;
57826;SDS011;43656;57.746;11.780;2022-11-25T02:40:49;29.80;;;16.58;;
57826;SDS011;43656;57.746;11.780;2022-11-25T02:43:18;26.70;;;15.23;;
57826;SDS011;43656;57.746;11.780;2022-11-25T02:45:48;26.42;;;15.27;;
57826;SDS011;43656;57.746;11.780;2022-11-25T02:50:43;27.70;;;15.85;;
57826;SDS011;43656;57.746;11.780;2022-11-25T02:53:09;26.85;;;15.73;;
57826;SDS011;43656;57.746;11.780;2022-11-25T02:55:34;26.30;;;15.05;;
57826;SDS011;43656;57.746;11.780;2022-11-25T02:58:00;27.27;;;14.73;;
57826;SDS011;43656;57.746;11.780;2022-11-25T03:00:25;25.08;;;14.70;;
57826;SDS011;43656;57.746;11.780;2022-11-25T03:02:52;26.58;;;15.88;;
57826;SDS011;43656;57.746;11.780;2022-11-25T03:05:18;24.27;;;14.23;;
57826;SDS011;43656;57.746;11.780;2022-11-25T03:07:45;26.60;;;14.90;;
57826;SDS011;43656;57.746;11.780;2022-11-25T03:10:10;25.17;;;14.43;;
57826;SDS011;43656;57.746;11.780;2022-11-25T03:12:36;22.20;;;13.13;;
57826;SDS011;43656;57.746;11.780;2022-11-25T03:15:01;24.98;;;14.70;;
57826;SDS011;43656;57.746;11.780;2022-11-25T03:17:29;26.48;;;14.50;;
57826;SDS011;43656;57.746;11.780;2022-11-25T03:19:58;24.15;;;14.80;;
57826;SDS011;43656;57.746;11.780;2022-11-25T03:22:23;24.80;;;14.00;;
57826;SDS011;43656;57.746;11.780;2022-11-25T03:24:49;24.55;;;13.80;;
57826;SDS011;43656;57.746;11.780;2022-11-25T03:27:15;21.42;;;13.45;;
57826;SDS011;43656;57.746;11.780;2022-11-25T03:29:40;27.15;;;13.75;;
57826;SDS011;43656;57.746;11.780;2022-11-25T03:32:06;24.63;;;12.75;;
57826;SDS011;43656;57.746;11.780;2022-11-25T03:34:31;28.25;;;14.00;;
57826;SDS011;43656;57.746;11.780;2022-11-25T03:36:57;22.08;;;12.70;;
57826;SDS011;43656;57.746;11.780;2022-11-25T03:39:22;24.00;;;13.23;;
57826;SDS011;43656;57.746;11.780;2022-11-25T03:41:48;20.75;;;12.23;;
57826;SDS011;43656;57.746;11.780;2022-11-25T03:44:13;21.30;;;12.48;;
57826;SDS011;43656;57.746;11.780;2022-11-25T03:46:39;21.48;;;12.57;;
57826;SDS011;43656;57.746;11.780;2022-11-25T03:49:04;22.13;;;13.20;;
57826;SDS011;43656;57.746;11.780;2022-11-25T03:51:29;20.85;;;12.25;;
57826;SDS011;43656;57.746;11.780;2022-11-25T03:53:58;20.55;;;12.10;;
57826;SDS011;43656;57.746;11.780;2022-11-25T03:56:23;23.02;;;11.68;;
57826;SDS011;43656;57.746;11.780;2022-11-25T03:58:49;20.75;;;12.15;;
57826;SDS011;43656;57.746;11.780;2022-11-25T04:01:14;19.52;;;12.00;;
57826;SDS011;43656;57.746;11.780;2022-11-25T04:03:40;19.02;;;11.20;;
57826;SDS011;43656;57.746;11.780;2022-11-25T04:06:05;18.30;;;11.45;;
57826;SDS011;43656;57.746;11.780;2022-11-25T04:08:33;20.45;;;12.70;;
57826;SDS011;43656;57.746;11.780;2022-11-25T04:10:58;17.77;;;11.00;;
57826;SDS011;43656;57.746;11.780;2022-11-25T04:13:24;16.48;;;10.05;;
57826;SDS011;43656;57.746;11.780;2022-11-25T04:15:49;19.15;;;11.88;;
57826;SDS011;43656;57.746;11.780;2022-11-25T04:18:16;18.50;;;11.30;;
57826;SDS011;43656;57.746;11.780;2022-11-25T04:20:42;21.13;;;10.95;;
57826;SDS011;43656;57.746;11.780;2022-11-25T04:23:08;20.02;;;11.05;;
57826;SDS011;43656;57.746;11.780;2022-11-25T04:25:35;17.30;;;10.30;;
57826;SDS011;43656;57.746;11.780;2022-11-25T04:28:01;17.65;;;11.07;;
57826;SDS011;43656;57.746;11.780;2022-11-25T04:30:27;19.63;;;11.13;;
57826;SDS011;43656;57.746;11.780;2022-11-25T04:32:52;17.52;;;10.68;;
57826;SDS011;43656;57.746;11.780;2022-11-25T04:35:19;15.82;;;9.88;;
57826;SDS011;43656;57.746;11.780;2022-11-25T04:37:45;18.25;;;9.30;;
57826;SDS011;43656;57.746;11.780;2022-11-25T04:40:10;16.50;;;10.38;;
57826;SDS011;43656;57.746;11.780;2022-11-25T04:42:36;16.13;;;10.35;;
57826;SDS011;43656;57.746;11.780;2022-11-25T04:45:07;19.63;;;9.63;;
57826;SDS011;43656;57.746;11.780;2022-11-25T04:47:35;17.67;;;9.65;;
57826;SDS011;43656;57.746;11.780;2022-11-25T04:50:03;18.15;;;10.63;;
57826;SDS011;43656;57.746;11.780;2022-11-25T04:52:30;15.07;;;10.20;;
57826;SDS011;43656;57.746;11.780;2022-11-25T04:54:56;16.60;;;10.07;;
57826;SDS011;43656;57.746;11.780;2022-11-25T04:57:21;14.30;;;9.38;;
57826;SDS011;43656;57.746;11.780;2022-11-25T04:59:46;16.25;;;9.93;;
57826;SDS011;43656;57.746;11.780;2022-11-25T05:02:13;16.42;;;10.48;;
57826;SDS011;43656;57.746;11.780;2022-11-25T05:04:46;15.90;;;9.73;;
57826;SDS011;43656;57.746;11.780;2022-11-25T05:07:13;15.20;;;9.60;;
57826;SDS011;43656;57.746;11.780;2022-11-25T05:09:40;16.23;;;9.63;;
57826;SDS011;43656;57.746;11.780;2022-11-25T05:12:06;17.23;;;10.77;;
57826;SDS011;43656;57.746;11.780;2022-11-25T05:14:32;16.05;;;9.73;;
57826;SDS011;43656;57.746;11.780;2022-11-25T05:16:59;16.23;;;9.93;;
57826;SDS011;43656;57.746;11.780;2022-11-25T05:19:26;15.35;;;9.65;;
57826;SDS011;43656;57.746;11.780;2022-11-25T05:21:51;14.82;;;9.68;;
57826;SDS011;43656;57.746;11.780;2022-11-25T05:24:17;17.08;;;10.70;;
57826;SDS011;43656;57.746;11.780;2022-11-25T05:26:42;16.02;;;9.70;;
57826;SDS011;43656;57.746;11.780;2022-11-25T05:29:08;15.20;;;10.05;;
57826;SDS011;43656;57.746;11.780;2022-11-25T05:31:34;14.40;;;9.18;;
57826;SDS011;43656;57.746;11.780;2022-11-25T05:34:00;19.20;;;11.40;;
57826;SDS011;43656;57.746;11.780;2022-11-25T05:36:26;15.80;;;10.00;;
57826;SDS011;43656;57.746;11.780;2022-11-25T05:38:55;14.65;;;9.18;;
57826;SDS011;43656;57.746;11.780;2022-11-25T05:41:21;16.25;;;9.57;;
57826;SDS011;43656;57.746;11.780;2022-11-25T05:43:47;14.65;;;9.10;;
57826;SDS011;43656;57.746;11.780;2022-11-25T05:46:13;16.20;;;9.90;;
57826;SDS011;43656;57.746;11.780;2022-11-25T05:48:38;17.52;;;10.05;;
57826;SDS011;43656;57.746;11.780;2022-11-25T05:51:04;15.23;;;10.30;;
57826;SDS011;43656;57.746;11.780;2022-11-25T05:53:30;16.23;;;9.73;;
57826;SDS011;43656;57.746;11.780;2022-11-25T05:55:56;14.52;;;9.75;;
57826;SDS011;43656;57.746;11.780;2022-11-25T05:58:24;15.90;;;10.15;;
57826;SDS011;43656;57.746;11.780;2022-11-25T06:00:50;14.68;;;9.55;;
57826;SDS011;43656;57.746;11.780;2022-11-25T06:03:16;16.02;;;9.95;;
57826;SDS011;43656;57.746;11.780;2022-11-25T06:05:41;14.57;;;9.10;;
57826;SDS011;43656;57.746;11.780;2022-11-25T06:08:07;15.60;;;9.50;;
57826;SDS011;43656;57.746;11.780;2022-11-25T06:10:33;15.43;;;10.15;;
57826;SDS011;43656;57.746;11.780;2022-11-25T06:12:59;15.95;;;9.25;;
57826;SDS011;43656;57.746;11.780;2022-11-25T06:15:24;15.23;;;9.25;;
57826;SDS011;43656;57.746;11.780;2022-11-25T06:17:49;15.40;;;9.68;;
57826;SDS011;43656;57.746;11.780;2022-11-25T06:20:15;14.38;;;8.98;;
57826;SDS011;43656;57.746;11.780;2022-11-25T06:22:56;12.80;;;8.52;;
57826;SDS011;43656;57.746;11.780;2022-11-25T06:25:22;12.73;;;8.57;;
57826;SDS011;43656;57.746;11.780;2022-11-25T06:27:48;14.05;;;8.38;;
57826;SDS011;43656;57.746;11.780;2022-11-25T06:30:13;14.02;;;8.60;;
57826;SDS011;43656;57.746;11.780;2022-11-25T06:32:39;12.15;;;8.02;;
57826;SDS011;43656;57.746;11.780;2022-11-25T06:35:04;13.52;;;8.50;;
57826;SDS011;43656;57.746;11.780;2022-11-25T06:37:30;13.98;;;8.70;;
57826;SDS011;43656;57.746;11.780;2022-11-25T06:39:57;12.77;;;8.15;;
57826;SDS011;43656;57.746;11.780;2022-11-25T06:42:22;12.27;;;7.97;;
57826;SDS011;43656;57.746;11.780;2022-11-25T06:44:47;13.63;;;7.70;;
57826;SDS011;43656;57.746;11.780;2022-11-25T06:47:13;12.98;;;8.02;;
57826;SDS011;43656;57.746;11.780;2022-11-25T06:49:38;11.30;;;7.70;;
57826;SDS011;43656;57.746;11.780;2022-11-25T06:52:03;12.52;;;7.45;;
57826;SDS011;43656;57.746;11.780;2022-11-25T06:54:29;12.95;;;7.85;;
57826;SDS011;43656;57.746;11.780;2022-11-25T06:56:54;13.70;;;7.43;;
57826;SDS011;43656;57.746;11.780;2022-11-25T06:59:20;11.38;;;7.75;;
57826;SDS011;43656;57.746;11.780;2022-11-25T07:01:45;12.45;;;7.90;;
57826;SDS011;43656;57.746;11.780;2022-11-25T07:04:11;12.88;;;7.82;;
57826;SDS011;43656;57.746;11.780;2022-11-25T07:06:37;11.30;;;7.20;;
57826;SDS011;43656;57.746;11.780;2022-11-25T07:09:02;11.60;;;7.13;;
57826;SDS011;43656;57.746;11.780;2022-11-25T07:11:29;10.30;;;7.07;;
57826;SDS011;43656;57.746;11.780;2022-11-25T07:14:00;13.13;;;7.35;;
57826;SDS011;43656;57.746;11.780;2022-11-25T07:16:27;11.68;;;7.45;;
57826;SDS011;43656;57.746;11.780;2022-11-25T07:18:53;10.30;;;6.57;;
57826;SDS011;43656;57.746;11.780;2022-11-25T07:21:20;11.77;;;7.57;;
57826;SDS011;43656;57.746;11.780;2022-11-25T07:23:47;13.60;;;6.78;;
57826;SDS011;43656;57.746;11.780;2022-11-25T07:26:23;10.52;;;7.30;;
57826;SDS011;43656;57.746;11.780;2022-11-25T07:28:52;10.77;;;6.75;;
57826;SDS011;43656;57.746;11.780;2022-11-25T07:31:19;9.95;;;6.75;;
57826;SDS011;43656;57.746;11.780;2022-11-25T07:33:47;9.85;;;6.28;;
57826;SDS011;43656;57.746;11.780;2022-11-25T07:36:15;9.38;;;6.28;;
57826;SDS011;43656;57.746;11.780;2022-11-25T07:38:40;10.15;;;6.53;;
57826;SDS011;43656;57.746;11.780;2022-11-25T07:41:06;13.32;;;6.60;;
57826;SDS011;43656;57.746;11.780;2022-11-25T07:43:32;9.30;;;6.30;;
57826;SDS011;43656;57.746;11.780;2022-11-25T07:48:44;11.30;;;6.57;;
57826;SDS011;43656;57.746;11.780;2022-11-25T07:51:21;10.10;;;5.80;;
57826;SDS011;43656;57.746;11.780;2022-11-25T07:53:48;12.57;;;6.50;;
57826;SDS011;43656;57.746;11.780;2022-11-25T07:56:15;8.10;;;5.70;;
57826;SDS011;43656;57.746;11.780;2022-11-25T07:58:42;9.82;;;5.78;;
57826;SDS011;43656;57.746;11.780;2022-11-25T08:01:09;9.63;;;5.85;;
57826;SDS011;43656;57.746;11.780;2022-11-25T08:03:36;8.65;;;5.45;;
57826;SDS011;43656;57.746;11.780;2022-11-25T08:06:03;7.70;;;5.70;;
57826;SDS011;43656;57.746;11.780;2022-11-25T08:08:30;8.13;;;5.55;;
57826;SDS011;43656;57.746;11.780;2022-11-25T08:10:56;8.18;;;5.50;;
57826;SDS011;43656;57.746;11.780;2022-11-25T08:13:21;8.30;;;5.82;;
57826;SDS011;43656;57.746;11.780;2022-11-25T08:15:47;8.80;;;5.47;;
57826;SDS011;43656;57.746;11.780;2022-11-25T08:18:12;7.60;;;5.28;;
57826;SDS011;43656;57.746;11.780;2022-11-25T08:20:38;8.25;;;5.60;;
57826;SDS011;43656;57.746;11.780;2022-11-25T08:23:03;7.85;;;5.65;;
57826;SDS011;43656;57.746;11.780;2022-11-25T08:25:29;7.05;;;5.05;;
57826;SDS011;43656;57.746;11.780;2022-11-25T08:27:57;7.57;;;4.65;;
57826;SDS011;43656;57.746;11.780;2022-11-25T08:30:23;7.25;;;5.32;;
57826;SDS011;43656;57.746;11.780;2022-11-25T08:32:50;7.72;;;5.72;;
57826;SDS011;43656;57.746;11.780;2022-11-25T08:35:16;8.63;;;5.43;;
57826;SDS011;43656;57.746;11.780;2022-11-25T08:37:45;7.05;;;5.45;;
57826;SDS011;43656;57.746;11.780;2022-11-25T08:40:11;7.40;;;5.53;;
57826;SDS011;43656;57.746;11.780;2022-11-25T08:42:37;7.50;;;4.78;;
57826;SDS011;43656;57.746;11.780;2022-11-25T08:45:03;7.68;;;5.15;;
57826;SDS011;43656;57.746;11.780;2022-11-25T08:47:29;8.73;;;5.38;;
57826;SDS011;43656;57.746;11.780;2022-11-25T08:49:55;8.20;;;5.00;;
57826;SDS011;43656;57.746;11.780;2022-11-25T08:52:20;8.07;;;5.38;;
57826;SDS011;43656;57.746;11.780;2022-11-25T08:54:46;8.05;;;5.40;;
57826;SDS011;43656;57.746;11.780;2022-11-25T08:57:12;8.38;;;5.30;;
57826;SDS011;43656;57.746;11.780;2022-11-25T08:59:38;7.50;;;5.20;;
57826;SDS011;43656;57.746;11.780;2022-11-25T09:02:04;11.23;;;4.80;;
57826;SDS011;43656;57.746;11.780;2022-11-25T09:04:30;8.15;;;5.03;;
57826;SDS011;43656;57.746;11.780;2022-11-25T09:06:55;7.40;;;4.88;;
57826;SDS011;43656;57.746;11.780;2022-11-25T09:09:21;7.60;;;5.05;;
57826;SDS011;43656;57.746;11.780;2022-11-25T09:11:46;6.78;;;5.00;;
57826;SDS011;43656;57.746;11.780;2022-11-25T09:14:12;9.18;;;4.80;;
57826;SDS011;43656;57.746;11.780;2022-11-25T09:16:37;6.65;;;4.78;;
57826;SDS011;43656;57.746;11.780;2022-11-25T09:19:03;6.50;;;4.68;;
57826;SDS011;43656;57.746;11.780;2022-11-25T09:21:30;7.75;;;4.63;;
57826;SDS011;43656;57.746;11.780;2022-11-25T09:23:56;8.05;;;4.95;;
57826;SDS011;43656;57.746;11.780;2022-11-25T09:26:24;6.47;;;4.63;;
57826;SDS011;43656;57.746;11.780;2022-11-25T09:28:54;6.72;;;4.18;;
57826;SDS011;43656;57.746;11.780;2022-11-25T09:31:20;5.85;;;4.45;;
57826;SDS011;43656;57.746;11.780;2022-11-25T09:33:46;5.30;;;3.95;;
57826;SDS011;43656;57.746;11.780;2022-11-25T09:36:16;6.00;;;3.85;;
57826;SDS011;43656;57.746;11.780;2022-11-25T09:38:45;5.63;;;4.45;;
57826;SDS011;43656;57.746;11.780;2022-11-25T09:44:09;7.47;;;4.97;;
57826;SDS011;43656;57.746;11.780;2022-11-25T09:47:07;4.77;;;4.10;;
57826;SDS011;43656;57.746;11.780;2022-11-25T09:55:29;5.32;;;4.15;;
57826;SDS011;43656;57.746;11.780;2022-11-25T10:00:47;5.65;;;4.07;;
57826;SDS011;43656;57.746;11.780;2022-11-25T10:06:20;4.68;;;4.00;;
57826;SDS011;43656;57.746;11.780;2022-11-25T10:08:52;6.07;;;3.83;;
57826;SDS011;43656;57.746;11.780;2022-11-25T10:11:41;6.00;;;4.15;;
57826;SDS011;43656;57.746;11.780;2022-11-25T10:24:56;6.10;;;4.63;;
57826;SDS011;43656;57.746;11.780;2022-11-25T10:27:26;7.07;;;5.20;;
57826;SDS011;43656;57.746;11.780;2022-11-25T10:30:21;7.63;;;5.47;;
57826;SDS011;43656;57.746;11.780;2022-11-25T10:33:02;7.75;;;5.43;;
57826;SDS011;43656;57.746;11.780;2022-11-25T10:35:38;7.30;;;5.32;;
57826;SDS011;43656;57.746;11.780;2022-11-25T10:38:14;7.30;;;5.40;;
57826;SDS011;43656;57.746;11.780;2022-11-25T10:40:48;8.07;;;5.70;;
57826;SDS011;43656;57.746;11.780;2022-11-25T10:43:16;7.10;;;5.45;;
57826;SDS011;43656;57.746;11.780;2022-11-25T10:46:43;7.28;;;5.30;;
57826;SDS011;43656;57.746;11.780;2022-11-25T10:48:53;7.57;;;5.28;;
57826;SDS011;43656;57.746;11.780;2022-11-25T10:56:42;9.27;;;5.00;;
57826;SDS011;43656;57.746;11.780;2022-11-25T10:59:13;7.43;;;5.68;;
57826;SDS011;43656;57.746;11.780;2022-11-25T11:01:45;7.47;;;5.25;;
57826;SDS011;43656;57.746;11.780;2022-11-25T11:04:12;6.22;;;4.70;;
57826;SDS011;43656;57.746;11.780;2022-11-25T11:06:43;7.65;;;5.70;;
57826;SDS011;43656;57.746;11.780;2022-11-25T11:14:51;9.82;;;6.13;;
57826;SDS011;43656;57.746;11.780;2022-11-25T11:17:34;8.25;;;6.05;;
57826;SDS011;43656;57.746;11.780;2022-11-25T11:20:12;8.23;;;5.22;;
57826;SDS011;43656;57.746;11.780;2022-11-25T11:22:44;8.75;;;5.70;;
57826;SDS011;43656;57.746;11.780;2022-11-25T11:27:44;8.20;;;5.82;;
57826;SDS011;43656;57.746;11.780;2022-11-25T11:30:17;8.48;;;6.35;;
57826;SDS011;43656;57.746;11.780;2022-11-25T11:33:04;8.43;;;5.90;;
57826;SDS011;43656;57.746;11.780;2022-11-25T11:38:19;7.88;;;6.28;;
57826;SDS011;43656;57.746;11.780;2022-11-25T11:40:54;8.98;;;6.47;;
57826;SDS011;43656;57.746;11.780;2022-11-25T11:50:16;8.27;;;5.45;;
57826;SDS011;43656;57.746;11.780;2022-11-25T12:00:35;7.80;;;5.22;;
57826;SDS011;43656;57.746;11.780;2022-11-25T12:03:13;6.00;;;4.80;;
57826;SDS011;43656;57.746;11.780;2022-11-25T12:05:41;6.45;;;4.65;;
57826;SDS011;43656;57.746;11.780;2022-11-25T12:19:12;6.18;;;5.00;;
57826;SDS011;43656;57.746;11.780;2022-11-25T12:29:06;7.18;;;4.47;;
57826;SDS011;43656;57.746;11.780;2022-11-25T12:31:37;8.43;;;4.75;;
57826;SDS011;43656;57.746;11.780;2022-11-25T12:34:19;5.65;;;4.30;;
57826;SDS011;43656;57.746;11.780;2022-11-25T12:37:12;7.07;;;4.50;;
57826;SDS011;43656;57.746;11.780;2022-11-25T12:39:53;12.10;;;7.07;;
57826;SDS011;43656;57.746;11.780;2022-11-25T12:42:24;8.57;;;5.03;;
57826;SDS011;43656;57.746;11.780;2022-11-25T12:44:56;9.68;;;6.13;;
57826;SDS011;43656;57.746;11.780;2022-11-25T12:47:29;5.13;;;3.90;;
57826;SDS011;43656;57.746;11.780;2022-11-25T12:49:55;6.47;;;4.70;;
57826;SDS011;43656;57.746;11.780;2022-11-25T12:53:25;9.88;;;4.93;;
57826;SDS011;43656;57.746;11.780;2022-11-25T12:55:37;6.60;;;4.53;;
57826;SDS011;43656;57.746;11.780;2022-11-25T13:17:08;6.22;;;4.53;;
57826;SDS011;43656;57.746;11.780;2022-11-25T13:19:37;9.48;;;4.20;;
57826;SDS011;43656;57.746;11.780;2022-11-25T13:22:24;6.45;;;4.30;;
57826;SDS011;43656;57.746;11.780;2022-11-25T13:24:48;7.45;;;4.85;;
57826;SDS011;43656;57.746;11.780;2022-11-25T13:29:55;6.40;;;4.65;;
57826;SDS011;43656;57.746;11.780;2022-11-25T13:32:34;6.90;;;4.82;;
57826;SDS011;43656;57.746;11.780;2022-11-25T13:37:45;9.05;;;5.10;;
57826;SDS011;43656;57.746;11.780;2022-11-25T13:40:34;7.82;;;4.78;;
57826;SDS011;43656;57.746;11.780;2022-11-25T13:43:00;7.00;;;5.07;;
57826;SDS011;43656;57.746;11.780;2022-11-25T13:45:27;6.20;;;4.38;;
57826;SDS011;43656;57.746;11.780;2022-11-25T13:48:03;7.63;;;4.50;;
57826;SDS011;43656;57.746;11.780;2022-11-25T13:50:31;11.35;;;5.15;;
57826;SDS011;43656;57.746;11.780;2022-11-25T14:01:35;7.35;;;4.97;;
57826;SDS011;43656;57.746;11.780;2022-11-25T14:04:10;6.10;;;4.82;;
57826;SDS011;43656;57.746;11.780;2022-11-25T14:06:46;6.53;;;4.85;;
57826;SDS011;43656;57.746;11.780;2022-11-25T14:10:02;5.38;;;4.53;;
57826;SDS011;43656;57.746;11.780;2022-11-25T14:15:12;6.93;;;4.93;;
57826;SDS011;43656;57.746;11.780;2022-11-25T14:25:50;6.88;;;5.55;;
57826;SDS011;43656;57.746;11.780;2022-11-25T14:28:20;6.82;;;4.97;;
57826;SDS011;43656;57.746;11.780;2022-11-25T14:30:57;9.05;;;5.05;;
57826;SDS011;43656;57.746;11.780;2022-11-25T14:33:40;7.38;;;4.90;;
57826;SDS011;43656;57.746;11.780;2022-11-25T14:36:20;7.60;;;5.38;;
57826;SDS011;43656;57.746;11.780;2022-11-25T14:44:15;6.70;;;5.03;;
57826;SDS011;43656;57.746;11.780;2022-11-25T14:46:52;7.30;;;4.40;;
57826;SDS011;43656;57.746;11.780;2022-11-25T14:49:18;9.40;;;4.88;;
57826;SDS011;43656;57.746;11.780;2022-11-25T14:51:46;9.88;;;5.47;;
57826;SDS011;43656;57.746;11.780;2022-11-25T14:54:17;6.32;;;4.70;;
57826;SDS011;43656;57.746;11.780;2022-11-25T14:56:42;8.65;;;5.32;;
57826;SDS011;43656;57.746;11.780;2022-11-25T14:59:09;7.43;;;5.57;;
57826;SDS011;43656;57.746;11.780;2022-11-25T15:01:37;9.57;;;5.47;;
57826;SDS011;43656;57.746;11.780;2022-11-25T15:06:53;9.13;;;4.68;;
57826;SDS011;43656;57.746;11.780;2022-11-25T15:09:23;9.00;;;5.93;;
57826;SDS011;43656;57.746;11.780;2022-11-25T15:12:33;9.95;;;5.20;;
57826;SDS011;43656;57.746;11.780;2022-11-25T15:14:43;9.82;;;6.25;;
57826;SDS011;43656;57.746;11.780;2022-11-25T15:17:27;9.50;;;5.97;;
57826;SDS011;43656;57.746;11.780;2022-11-25T15:19:56;10.60;;;5.82;;
57826;SDS011;43656;57.746;11.780;2022-11-25T15:22:23;7.07;;;5.25;;
57826;SDS011;43656;57.746;11.780;2022-11-25T15:24:49;7.45;;;5.63;;
57826;SDS011;43656;57.746;11.780;2022-11-25T15:29:43;8.27;;;5.25;;
57826;SDS011;43656;57.746;11.780;2022-11-25T15:32:13;6.75;;;5.18;;
57826;SDS011;43656;57.746;11.780;2022-11-25T15:34:42;10.10;;;5.40;;
57826;SDS011;43656;57.746;11.780;2022-11-25T15:37:09;6.18;;;4.50;;
57826;SDS011;43656;57.746;11.780;2022-11-25T15:39:35;6.88;;;4.88;;
57826;SDS011;43656;57.746;11.780;2022-11-25T15:44:32;6.70;;;4.85;;
57826;SDS011;43656;57.746;11.780;2022-11-25T15:47:03;7.07;;;4.95;;
57826;SDS011;43656;57.746;11.780;2022-11-25T15:49:38;6.97;;;4.68;;
57826;SDS011;43656;57.746;11.780;2022-11-25T15:52:05;8.27;;;4.40;;
57826;SDS011;43656;57.746;11.780;2022-11-25T15:54:41;6.18;;;4.68;;
57826;SDS011;43656;57.746;11.780;2022-11-25T15:57:20;7.90;;;4.40;;
57826;SDS011;43656;57.746;11.780;2022-11-25T16:15:46;6.20;;;4.57;;
57826;SDS011;43656;57.746;11.780;2022-11-25T16:18:14;11.80;;;4.88;;
57826;SDS011;43656;57.746;11.780;2022-11-25T16:20:48;9.23;;;5.18;;
57826;SDS011;43656;57.746;11.780;2022-11-25T16:23:16;9.55;;;4.82;;
57826;SDS011;43656;57.746;11.780;2022-11-25T16:25:54;14.40;;;5.55;;
57826;SDS011;43656;57.746;11.780;2022-11-25T16:28:24;6.07;;;4.38;;
57826;SDS011;43656;57.746;11.780;2022-11-25T16:30:50;6.80;;;4.60;;
57826;SDS011;43656;57.746;11.780;2022-11-25T16:33:16;6.22;;;4.63;;
57826;SDS011;43656;57.746;11.780;2022-11-25T16:35:45;7.55;;;5.00;;
57826;SDS011;43656;57.746;11.780;2022-11-25T16:38:10;6.00;;;4.10;;
57826;SDS011;43656;57.746;11.780;2022-11-25T16:40:36;7.10;;;4.72;;
57826;SDS011;43656;57.746;11.780;2022-11-25T16:43:03;7.45;;;4.55;;
57826;SDS011;43656;57.746;11.780;2022-11-25T16:45:37;6.20;;;4.47;;
57826;SDS011;43656;57.746;11.780;2022-11-25T16:48:11;5.05;;;4.03;;
57826;SDS011;43656;57.746;11.780;2022-11-25T16:50:40;6.25;;;4.22;;
57826;SDS011;43656;57.746;11.780;2022-11-25T16:53:06;5.72;;;4.18;;
57826;SDS011;43656;57.746;11.780;2022-11-25T16:55:31;8.90;;;6.43;;
57826;SDS011;43656;57.746;11.780;2022-11-25T16:57:56;14.75;;;9.65;;
57826;SDS011;43656;57.746;11.780;2022-11-25T17:00:22;12.68;;;8.85;;
57826;SDS011;43656;57.746;11.780;2022-11-25T17:02:47;6.20;;;4.47;;
57826;SDS011;43656;57.746;11.780;2022-11-25T17:07:41;7.45;;;4.85;;
57826;SDS011;43656;57.746;11.780;2022-11-25T17:10:07;5.78;;;4.50;;
57826;SDS011;43656;57.746;11.780;2022-11-25T17:12:32;9.68;;;6.13;;
57826;SDS011;43656;57.746;11.780;2022-11-25T17:15:00;9.65;;;6.57;;
57826;SDS011;43656;57.746;11.780;2022-11-25T17:17:28;11.93;;;7.07;;
57826;SDS011;43656;57.746;11.780;2022-11-25T17:19:53;9.55;;;6.70;;
57826;SDS011;43656;57.746;11.780;2022-11-25T17:22:23;8.75;;;6.15;;
57826;SDS011;43656;57.746;11.780;2022-11-25T17:24:51;7.85;;;4.93;;
57826;SDS011;43656;57.746;11.780;2022-11-25T17:27:21;7.93;;;5.65;;